Terminal Aerodrome Forecast
Issued by NWS Upton, NY

Current Version | Previous Version | Text Only | Print | Product List | Glossary On
Versions: 1 2 3 4 5 6 7 8 9 10 11 12 13 14 15 16 17 18 19 20 21 22 23 24 25 26
000
FTUS41 KOKX 310500
TAFJFK
TAF
KJFK 310540Z 3106/0112 20008KT P6SM SCT015 BKN040
      TEMPO 3107/3110 BKN015
     FM311000 20008KT P6SM BKN015
     FM311500 19012KT P6SM SCT020 BKN040
     FM311800 19016KT P6SM SCT040 SCT080 BKN150
     FM312200 20012KT 4SM SHRA BR SCT040 BKN080 PROB30 3122/0104
      TSRA BKN040CB
     FM010400 23008KT 4SM SHRA BR FEW025 BKN040=

USA.gov is the U.S. government's official web portal to all federal, state and local government web resources and services.